Seahurst, Washington
Current Conditions -  °F | °C
As of 11:53 PM on Monday 26 Jan 2015 (Local Time) from KSEA Reporting Station
Overcast Overcast  
Wind Chill: 51°   Ceiling: 1400
Heat Index: 51°   Visibility: 10mi
Dew Point: 47°   Wind: 0mph
Humidity: 86%   Direction: NA
Pressure: 29.99"   Gusts: NA
Location:  47.47°N, 122.36°W
Report Text: KSEA 270753Z 00000KT 10SM OVC014 11/08 A2999 RMK AO2 SLP163 T01060083 401610061
Loading
Personal Weather Stations






























Interactive Weather Map New forecast layout! Learn more

10-Day Weather Forecast

Advertisements
Track Severe Weather on mobile